sensor_id;sensor_type;location;lat;lon;timestamp;P1;durP1;ratioP1;P2;durP2;ratioP2
58661;SDS011;44432;49.786;22.760;2023-12-29T00:00:29;13.60;;;8.20;;
58661;SDS011;44432;49.786;22.760;2023-12-29T00:03:19;12.10;;;7.60;;
58661;SDS011;44432;49.786;22.760;2023-12-29T00:05:50;12.70;;;7.50;;
58661;SDS011;44432;49.786;22.760;2023-12-29T00:08:21;16.50;;;7.80;;
58661;SDS011;44432;49.786;22.760;2023-12-29T00:10:52;13.10;;;7.70;;
58661;SDS011;44432;49.786;22.760;2023-12-29T00:13:22;15.90;;;9.00;;
58661;SDS011;44432;49.786;22.760;2023-12-29T00:15:53;14.40;;;9.30;;
58661;SDS011;44432;49.786;22.760;2023-12-29T00:18:24;12.90;;;8.40;;
58661;SDS011;44432;49.786;22.760;2023-12-29T00:20:55;20.50;;;11.60;;
58661;SDS011;44432;49.786;22.760;2023-12-29T00:23:26;19.80;;;10.80;;
58661;SDS011;44432;49.786;22.760;2023-12-29T00:25:56;19.60;;;10.70;;
58661;SDS011;44432;49.786;22.760;2023-12-29T00:28:27;16.80;;;10.10;;
58661;SDS011;44432;49.786;22.760;2023-12-29T00:30:58;16.00;;;8.40;;
58661;SDS011;44432;49.786;22.760;2023-12-29T00:33:29;24.70;;;9.30;;
58661;SDS011;44432;49.786;22.760;2023-12-29T00:35:59;13.80;;;8.70;;
58661;SDS011;44432;49.786;22.760;2023-12-29T00:38:30;13.30;;;8.70;;
58661;SDS011;44432;49.786;22.760;2023-12-29T00:41:01;13.70;;;9.20;;
58661;SDS011;44432;49.786;22.760;2023-12-29T00:43:33;13.60;;;9.10;;
58661;SDS011;44432;49.786;22.760;2023-12-29T00:46:04;12.30;;;8.50;;
58661;SDS011;44432;49.786;22.760;2023-12-29T00:48:38;14.80;;;8.80;;
58661;SDS011;44432;49.786;22.760;2023-12-29T00:51:09;12.30;;;9.10;;
58661;SDS011;44432;49.786;22.760;2023-12-29T00:53:40;14.20;;;9.50;;
58661;SDS011;44432;49.786;22.760;2023-12-29T00:56:11;12.60;;;8.80;;
58661;SDS011;44432;49.786;22.760;2023-12-29T00:58:42;14.60;;;9.60;;
58661;SDS011;44432;49.786;22.760;2023-12-29T01:01:13;18.20;;;10.70;;
58661;SDS011;44432;49.786;22.760;2023-12-29T01:03:44;18.80;;;10.50;;
58661;SDS011;44432;49.786;22.760;2023-12-29T01:06:14;16.30;;;10.60;;
58661;SDS011;44432;49.786;22.760;2023-12-29T01:08:45;12.80;;;9.20;;
58661;SDS011;44432;49.786;22.760;2023-12-29T01:11:16;11.20;;;8.50;;
58661;SDS011;44432;49.786;22.760;2023-12-29T01:13:47;10.50;;;8.10;;
58661;SDS011;44432;49.786;22.760;2023-12-29T01:16:17;12.10;;;8.40;;
58661;SDS011;44432;49.786;22.760;2023-12-29T01:18:48;12.30;;;8.60;;
58661;SDS011;44432;49.786;22.760;2023-12-29T01:21:19;12.80;;;9.60;;
58661;SDS011;44432;49.786;22.760;2023-12-29T01:23:50;12.40;;;8.90;;
58661;SDS011;44432;49.786;22.760;2023-12-29T01:26:20;13.40;;;8.30;;
58661;SDS011;44432;49.786;22.760;2023-12-29T01:28:51;21.40;;;15.60;;
58661;SDS011;44432;49.786;22.760;2023-12-29T01:31:23;21.70;;;15.90;;
58661;SDS011;44432;49.786;22.760;2023-12-29T01:33:57;12.80;;;8.80;;
58661;SDS011;44432;49.786;22.760;2023-12-29T01:36:28;13.40;;;9.90;;
58661;SDS011;44432;49.786;22.760;2023-12-29T01:38:59;15.00;;;10.20;;
58661;SDS011;44432;49.786;22.760;2023-12-29T01:41:30;21.90;;;13.90;;
58661;SDS011;44432;49.786;22.760;2023-12-29T01:44:18;18.00;;;10.10;;
58661;SDS011;44432;49.786;22.760;2023-12-29T01:46:50;16.10;;;9.10;;
58661;SDS011;44432;49.786;22.760;2023-12-29T01:49:23;14.90;;;10.20;;
58661;SDS011;44432;49.786;22.760;2023-12-29T01:51:54;17.30;;;9.90;;
58661;SDS011;44432;49.786;22.760;2023-12-29T01:54:27;16.40;;;10.80;;
58661;SDS011;44432;49.786;22.760;2023-12-29T01:57:02;20.00;;;12.60;;
58661;SDS011;44432;49.786;22.760;2023-12-29T01:59:33;17.30;;;10.80;;
58661;SDS011;44432;49.786;22.760;2023-12-29T02:02:06;19.50;;;12.70;;
58661;SDS011;44432;49.786;22.760;2023-12-29T02:04:38;17.00;;;10.90;;
58661;SDS011;44432;49.786;22.760;2023-12-29T02:07:11;14.70;;;10.50;;
58661;SDS011;44432;49.786;22.760;2023-12-29T02:09:42;15.20;;;10.50;;
58661;SDS011;44432;49.786;22.760;2023-12-29T02:12:13;13.30;;;9.30;;
58661;SDS011;44432;49.786;22.760;2023-12-29T02:14:44;13.20;;;8.40;;
58661;SDS011;44432;49.786;22.760;2023-12-29T02:17:15;12.00;;;8.80;;
58661;SDS011;44432;49.786;22.760;2023-12-29T02:19:51;16.80;;;11.00;;
58661;SDS011;44432;49.786;22.760;2023-12-29T02:22:22;14.00;;;10.30;;
58661;SDS011;44432;49.786;22.760;2023-12-29T02:24:53;12.20;;;8.60;;
58661;SDS011;44432;49.786;22.760;2023-12-29T02:27:25;15.50;;;9.80;;
58661;SDS011;44432;49.786;22.760;2023-12-29T02:30:06;12.20;;;8.70;;
58661;SDS011;44432;49.786;22.760;2023-12-29T02:32:41;14.20;;;9.00;;
58661;SDS011;44432;49.786;22.760;2023-12-29T02:35:17;15.10;;;9.90;;
58661;SDS011;44432;49.786;22.760;2023-12-29T02:37:52;13.40;;;8.60;;
58661;SDS011;44432;49.786;22.760;2023-12-29T02:40:23;12.80;;;8.60;;
58661;SDS011;44432;49.786;22.760;2023-12-29T02:42:54;13.60;;;9.00;;
58661;SDS011;44432;49.786;22.760;2023-12-29T02:45:25;15.40;;;10.10;;
58661;SDS011;44432;49.786;22.760;2023-12-29T02:47:56;16.30;;;9.20;;
58661;SDS011;44432;49.786;22.760;2023-12-29T02:50:26;12.50;;;8.90;;
58661;SDS011;44432;49.786;22.760;2023-12-29T02:52:57;13.70;;;9.50;;
58661;SDS011;44432;49.786;22.760;2023-12-29T02:55:28;11.80;;;8.70;;
58661;SDS011;44432;49.786;22.760;2023-12-29T02:57:59;12.90;;;8.70;;
58661;SDS011;44432;49.786;22.760;2023-12-29T03:00:29;13.90;;;8.10;;
58661;SDS011;44432;49.786;22.760;2023-12-29T03:03:01;12.70;;;9.30;;
58661;SDS011;44432;49.786;22.760;2023-12-29T03:05:31;14.80;;;9.30;;
58661;SDS011;44432;49.786;22.760;2023-12-29T03:08:02;12.80;;;9.20;;
58661;SDS011;44432;49.786;22.760;2023-12-29T03:10:34;12.80;;;9.10;;
58661;SDS011;44432;49.786;22.760;2023-12-29T03:13:05;14.10;;;9.30;;
58661;SDS011;44432;49.786;22.760;2023-12-29T03:15:35;12.30;;;9.20;;
58661;SDS011;44432;49.786;22.760;2023-12-29T03:18:06;14.40;;;9.60;;
58661;SDS011;44432;49.786;22.760;2023-12-29T03:20:37;12.70;;;9.20;;
58661;SDS011;44432;49.786;22.760;2023-12-29T03:23:07;16.00;;;10.10;;
58661;SDS011;44432;49.786;22.760;2023-12-29T03:25:38;14.70;;;8.90;;
58661;SDS011;44432;49.786;22.760;2023-12-29T03:28:09;10.80;;;8.80;;
58661;SDS011;44432;49.786;22.760;2023-12-29T03:30:40;14.20;;;9.70;;
58661;SDS011;44432;49.786;22.760;2023-12-29T03:33:10;14.30;;;8.90;;
58661;SDS011;44432;49.786;22.760;2023-12-29T03:35:41;13.30;;;8.90;;
58661;SDS011;44432;49.786;22.760;2023-12-29T03:38:12;13.70;;;9.50;;
58661;SDS011;44432;49.786;22.760;2023-12-29T03:40:43;14.30;;;9.30;;
58661;SDS011;44432;49.786;22.760;2023-12-29T03:43:14;12.20;;;8.90;;
58661;SDS011;44432;49.786;22.760;2023-12-29T03:45:45;13.40;;;9.80;;
58661;SDS011;44432;49.786;22.760;2023-12-29T03:48:16;14.10;;;8.90;;
58661;SDS011;44432;49.786;22.760;2023-12-29T03:50:47;13.30;;;9.60;;
58661;SDS011;44432;49.786;22.760;2023-12-29T03:53:17;14.60;;;10.10;;
58661;SDS011;44432;49.786;22.760;2023-12-29T03:55:48;12.00;;;8.50;;
58661;SDS011;44432;49.786;22.760;2023-12-29T03:58:20;12.40;;;8.50;;
58661;SDS011;44432;49.786;22.760;2023-12-29T04:00:51;12.30;;;8.40;;
58661;SDS011;44432;49.786;22.760;2023-12-29T04:03:21;11.40;;;8.20;;
58661;SDS011;44432;49.786;22.760;2023-12-29T04:05:52;12.10;;;8.60;;
58661;SDS011;44432;49.786;22.760;2023-12-29T04:08:23;12.10;;;8.60;;
58661;SDS011;44432;49.786;22.760;2023-12-29T04:10:54;15.60;;;10.90;;
58661;SDS011;44432;49.786;22.760;2023-12-29T04:13:25;15.90;;;9.60;;
58661;SDS011;44432;49.786;22.760;2023-12-29T04:15:56;12.00;;;8.30;;
58661;SDS011;44432;49.786;22.760;2023-12-29T04:18:28;12.10;;;8.20;;
58661;SDS011;44432;49.786;22.760;2023-12-29T04:20:59;13.10;;;8.80;;
58661;SDS011;44432;49.786;22.760;2023-12-29T04:23:30;12.60;;;8.80;;
58661;SDS011;44432;49.786;22.760;2023-12-29T04:26:00;11.60;;;7.80;;
58661;SDS011;44432;49.786;22.760;2023-12-29T04:28:31;10.70;;;8.20;;
58661;SDS011;44432;49.786;22.760;2023-12-29T04:31:02;11.20;;;8.20;;
58661;SDS011;44432;49.786;22.760;2023-12-29T04:33:33;9.40;;;7.50;;
58661;SDS011;44432;49.786;22.760;2023-12-29T04:36:04;11.50;;;7.70;;
58661;SDS011;44432;49.786;22.760;2023-12-29T04:38:35;14.80;;;9.10;;
58661;SDS011;44432;49.786;22.760;2023-12-29T04:41:07;13.50;;;9.30;;
58661;SDS011;44432;49.786;22.760;2023-12-29T04:43:40;20.70;;;9.70;;
58661;SDS011;44432;49.786;22.760;2023-12-29T04:46:11;12.10;;;7.50;;
58661;SDS011;44432;49.786;22.760;2023-12-29T04:48:41;13.60;;;8.50;;
58661;SDS011;44432;49.786;22.760;2023-12-29T04:51:12;12.40;;;7.40;;
58661;SDS011;44432;49.786;22.760;2023-12-29T04:53:43;14.10;;;8.80;;
58661;SDS011;44432;49.786;22.760;2023-12-29T04:56:14;14.50;;;9.20;;
58661;SDS011;44432;49.786;22.760;2023-12-29T04:58:44;16.80;;;9.00;;
58661;SDS011;44432;49.786;22.760;2023-12-29T05:01:15;15.20;;;9.20;;
58661;SDS011;44432;49.786;22.760;2023-12-29T05:03:46;15.80;;;10.10;;
58661;SDS011;44432;49.786;22.760;2023-12-29T05:06:17;12.90;;;8.80;;
58661;SDS011;44432;49.786;22.760;2023-12-29T05:08:47;14.70;;;9.80;;
58661;SDS011;44432;49.786;22.760;2023-12-29T05:11:18;15.20;;;10.30;;
58661;SDS011;44432;49.786;22.760;2023-12-29T05:13:49;14.00;;;8.90;;
58661;SDS011;44432;49.786;22.760;2023-12-29T05:16:19;21.50;;;14.20;;
58661;SDS011;44432;49.786;22.760;2023-12-29T05:18:50;49.10;;;31.20;;
58661;SDS011;44432;49.786;22.760;2023-12-29T05:21:21;152.00;;;81.10;;
58661;SDS011;44432;49.786;22.760;2023-12-29T05:23:53;49.70;;;30.60;;
58661;SDS011;44432;49.786;22.760;2023-12-29T05:26:24;27.20;;;17.70;;
58661;SDS011;44432;49.786;22.760;2023-12-29T05:28:55;16.70;;;11.20;;
58661;SDS011;44432;49.786;22.760;2023-12-29T05:31:26;23.10;;;13.70;;
58661;SDS011;44432;49.786;22.760;2023-12-29T05:33:56;50.70;;;28.40;;
58661;SDS011;44432;49.786;22.760;2023-12-29T05:36:27;21.60;;;14.20;;
58661;SDS011;44432;49.786;22.760;2023-12-29T05:38:58;24.30;;;15.50;;
58661;SDS011;44432;49.786;22.760;2023-12-29T05:41:29;34.80;;;23.10;;
58661;SDS011;44432;49.786;22.760;2023-12-29T05:43:59;34.60;;;20.40;;
58661;SDS011;44432;49.786;22.760;2023-12-29T05:46:30;19.00;;;12.50;;
58661;SDS011;44432;49.786;22.760;2023-12-29T05:49:01;38.10;;;22.40;;
58661;SDS011;44432;49.786;22.760;2023-12-29T05:51:32;44.60;;;22.30;;
58661;SDS011;44432;49.786;22.760;2023-12-29T05:54:02;46.50;;;25.40;;
58661;SDS011;44432;49.786;22.760;2023-12-29T05:56:33;53.90;;;27.20;;
58661;SDS011;44432;49.786;22.760;2023-12-29T05:59:04;19.10;;;11.50;;
58661;SDS011;44432;49.786;22.760;2023-12-29T06:01:35;19.90;;;14.80;;
58661;SDS011;44432;49.786;22.760;2023-12-29T06:04:06;20.30;;;14.50;;
58661;SDS011;44432;49.786;22.760;2023-12-29T06:06:36;23.10;;;16.20;;
58661;SDS011;44432;49.786;22.760;2023-12-29T06:09:07;23.90;;;15.00;;
58661;SDS011;44432;49.786;22.760;2023-12-29T06:11:39;39.80;;;28.50;;
58661;SDS011;44432;49.786;22.760;2023-12-29T06:14:10;25.50;;;16.20;;
58661;SDS011;44432;49.786;22.760;2023-12-29T06:16:41;22.40;;;14.50;;
58661;SDS011;44432;49.786;22.760;2023-12-29T06:19:12;15.30;;;9.40;;
58661;SDS011;44432;49.786;22.760;2023-12-29T06:21:42;18.40;;;10.70;;
58661;SDS011;44432;49.786;22.760;2023-12-29T06:24:13;17.90;;;11.90;;
58661;SDS011;44432;49.786;22.760;2023-12-29T06:26:44;13.70;;;8.50;;
58661;SDS011;44432;49.786;22.760;2023-12-29T06:29:16;30.10;;;19.40;;
58661;SDS011;44432;49.786;22.760;2023-12-29T06:31:46;29.40;;;19.70;;
58661;SDS011;44432;49.786;22.760;2023-12-29T06:34:17;43.40;;;30.30;;
58661;SDS011;44432;49.786;22.760;2023-12-29T06:36:48;30.50;;;21.50;;
58661;SDS011;44432;49.786;22.760;2023-12-29T06:39:19;38.90;;;25.20;;
58661;SDS011;44432;49.786;22.760;2023-12-29T06:41:51;27.80;;;17.40;;
58661;SDS011;44432;49.786;22.760;2023-12-29T06:44:21;19.80;;;12.60;;
58661;SDS011;44432;49.786;22.760;2023-12-29T06:46:52;16.90;;;10.90;;
58661;SDS011;44432;49.786;22.760;2023-12-29T06:49:23;18.10;;;10.80;;
58661;SDS011;44432;49.786;22.760;2023-12-29T06:51:54;17.30;;;10.70;;
58661;SDS011;44432;49.786;22.760;2023-12-29T06:54:24;15.90;;;10.50;;
58661;SDS011;44432;49.786;22.760;2023-12-29T06:56:55;31.30;;;21.00;;
58661;SDS011;44432;49.786;22.760;2023-12-29T06:59:26;17.30;;;11.80;;
58661;SDS011;44432;49.786;22.760;2023-12-29T07:01:57;24.70;;;13.00;;
58661;SDS011;44432;49.786;22.760;2023-12-29T07:04:27;26.20;;;15.80;;
58661;SDS011;44432;49.786;22.760;2023-12-29T07:06:59;27.00;;;14.70;;
58661;SDS011;44432;49.786;22.760;2023-12-29T07:09:30;20.50;;;13.30;;
58661;SDS011;44432;49.786;22.760;2023-12-29T07:12:01;23.60;;;12.40;;
58661;SDS011;44432;49.786;22.760;2023-12-29T07:14:32;20.50;;;13.70;;
58661;SDS011;44432;49.786;22.760;2023-12-29T07:17:04;22.20;;;13.10;;
58661;SDS011;44432;49.786;22.760;2023-12-29T07:19:34;20.90;;;13.10;;
58661;SDS011;44432;49.786;22.760;2023-12-29T07:22:05;25.10;;;15.00;;
58661;SDS011;44432;49.786;22.760;2023-12-29T07:24:36;31.30;;;17.60;;
58661;SDS011;44432;49.786;22.760;2023-12-29T07:27:08;44.60;;;26.30;;
58661;SDS011;44432;49.786;22.760;2023-12-29T07:29:39;43.70;;;28.20;;
58661;SDS011;44432;49.786;22.760;2023-12-29T07:32:10;48.80;;;30.90;;
58661;SDS011;44432;49.786;22.760;2023-12-29T07:34:40;48.00;;;29.10;;
58661;SDS011;44432;49.786;22.760;2023-12-29T07:37:12;40.30;;;26.60;;
58661;SDS011;44432;49.786;22.760;2023-12-29T07:39:42;47.80;;;27.80;;
58661;SDS011;44432;49.786;22.760;2023-12-29T07:42:15;41.70;;;26.80;;
58661;SDS011;44432;49.786;22.760;2023-12-29T07:44:46;48.80;;;31.40;;
58661;SDS011;44432;49.786;22.760;2023-12-29T07:47:16;75.20;;;49.20;;
58661;SDS011;44432;49.786;22.760;2023-12-29T07:49:47;99.40;;;66.30;;
58661;SDS011;44432;49.786;22.760;2023-12-29T07:52:18;64.80;;;42.90;;
58661;SDS011;44432;49.786;22.760;2023-12-29T07:54:49;72.70;;;44.20;;
58661;SDS011;44432;49.786;22.760;2023-12-29T07:57:20;53.90;;;31.20;;
58661;SDS011;44432;49.786;22.760;2023-12-29T07:59:51;46.00;;;29.80;;
58661;SDS011;44432;49.786;22.760;2023-12-29T08:02:22;42.20;;;28.60;;
58661;SDS011;44432;49.786;22.760;2023-12-29T08:04:53;31.30;;;20.70;;
58661;SDS011;44432;49.786;22.760;2023-12-29T08:07:24;26.00;;;17.30;;
58661;SDS011;44432;49.786;22.760;2023-12-29T08:09:55;33.80;;;19.80;;
58661;SDS011;44432;49.786;22.760;2023-12-29T08:12:26;31.50;;;18.90;;
58661;SDS011;44432;49.786;22.760;2023-12-29T08:14:56;27.70;;;16.70;;
58661;SDS011;44432;49.786;22.760;2023-12-29T08:17:27;30.20;;;18.30;;
58661;SDS011;44432;49.786;22.760;2023-12-29T08:19:59;25.40;;;13.70;;
58661;SDS011;44432;49.786;22.760;2023-12-29T08:22:30;29.60;;;18.00;;
58661;SDS011;44432;49.786;22.760;2023-12-29T08:25:02;31.50;;;17.90;;
58661;SDS011;44432;49.786;22.760;2023-12-29T08:27:34;54.70;;;29.90;;
58661;SDS011;44432;49.786;22.760;2023-12-29T08:30:06;44.30;;;26.20;;
58661;SDS011;44432;49.786;22.760;2023-12-29T08:32:37;29.10;;;16.70;;
58661;SDS011;44432;49.786;22.760;2023-12-29T08:35:08;29.70;;;15.50;;
58661;SDS011;44432;49.786;22.760;2023-12-29T08:37:39;23.80;;;12.70;;
58661;SDS011;44432;49.786;22.760;2023-12-29T08:40:10;28.70;;;16.10;;
58661;SDS011;44432;49.786;22.760;2023-12-29T08:42:42;27.00;;;15.60;;
58661;SDS011;44432;49.786;22.760;2023-12-29T08:45:13;28.40;;;15.20;;
58661;SDS011;44432;49.786;22.760;2023-12-29T08:47:44;27.40;;;14.40;;
58661;SDS011;44432;49.786;22.760;2023-12-29T08:50:16;29.50;;;14.90;;
58661;SDS011;44432;49.786;22.760;2023-12-29T08:52:47;30.80;;;18.20;;
58661;SDS011;44432;49.786;22.760;2023-12-29T08:55:18;30.80;;;16.00;;
58661;SDS011;44432;49.786;22.760;2023-12-29T08:57:48;19.30;;;12.50;;
58661;SDS011;44432;49.786;22.760;2023-12-29T09:00:20;21.70;;;10.70;;
58661;SDS011;44432;49.786;22.760;2023-12-29T09:02:51;23.70;;;13.50;;
58661;SDS011;44432;49.786;22.760;2023-12-29T09:05:22;23.30;;;12.80;;
58661;SDS011;44432;49.786;22.760;2023-12-29T09:07:53;19.40;;;12.80;;
58661;SDS011;44432;49.786;22.760;2023-12-29T09:10:23;22.20;;;11.50;;
58661;SDS011;44432;49.786;22.760;2023-12-29T09:12:54;22.20;;;10.60;;
58661;SDS011;44432;49.786;22.760;2023-12-29T09:15:25;19.90;;;10.60;;
58661;SDS011;44432;49.786;22.760;2023-12-29T09:17:56;16.40;;;8.80;;
58661;SDS011;44432;49.786;22.760;2023-12-29T09:20:27;22.60;;;9.70;;
58661;SDS011;44432;49.786;22.760;2023-12-29T09:22:58;17.50;;;9.40;;
58661;SDS011;44432;49.786;22.760;2023-12-29T09:25:31;20.70;;;10.90;;
58661;SDS011;44432;49.786;22.760;2023-12-29T09:28:08;12.80;;;8.90;;
58661;SDS011;44432;49.786;22.760;2023-12-29T09:30:40;20.20;;;10.70;;
58661;SDS011;44432;49.786;22.760;2023-12-29T09:33:11;25.40;;;10.30;;
58661;SDS011;44432;49.786;22.760;2023-12-29T09:35:42;17.70;;;10.00;;
58661;SDS011;44432;49.786;22.760;2023-12-29T09:38:13;15.70;;;9.40;;
58661;SDS011;44432;49.786;22.760;2023-12-29T09:40:44;15.10;;;8.60;;
58661;SDS011;44432;49.786;22.760;2023-12-29T09:43:17;17.50;;;11.50;;
58661;SDS011;44432;49.786;22.760;2023-12-29T09:45:48;15.90;;;8.70;;
58661;SDS011;44432;49.786;22.760;2023-12-29T09:48:24;17.00;;;8.80;;
58661;SDS011;44432;49.786;22.760;2023-12-29T09:50:57;23.20;;;10.40;;
58661;SDS011;44432;49.786;22.760;2023-12-29T09:53:28;12.50;;;8.60;;
58661;SDS011;44432;49.786;22.760;2023-12-29T09:56:00;17.30;;;8.10;;
58661;SDS011;44432;49.786;22.760;2023-12-29T09:58:32;22.50;;;9.00;;
58661;SDS011;44432;49.786;22.760;2023-12-29T10:01:04;14.00;;;8.40;;
58661;SDS011;44432;49.786;22.760;2023-12-29T10:03:36;11.30;;;8.10;;
58661;SDS011;44432;49.786;22.760;2023-12-29T10:06:07;15.20;;;8.50;;
58661;SDS011;44432;49.786;22.760;2023-12-29T10:08:42;18.10;;;8.80;;
58661;SDS011;44432;49.786;22.760;2023-12-29T10:11:16;14.20;;;7.70;;
58661;SDS011;44432;49.786;22.760;2023-12-29T10:13:50;16.00;;;8.40;;
58661;SDS011;44432;49.786;22.760;2023-12-29T10:16:27;37.70;;;34.30;;
58661;SDS011;44432;49.786;22.760;2023-12-29T10:19:07;18.60;;;10.20;;
58661;SDS011;44432;49.786;22.760;2023-12-29T10:21:48;27.90;;;10.90;;
58661;SDS011;44432;49.786;22.760;2023-12-29T10:24:26;24.70;;;14.00;;
58661;SDS011;44432;49.786;22.760;2023-12-29T10:26:57;22.40;;;12.30;;
58661;SDS011;44432;49.786;22.760;2023-12-29T10:29:28;14.20;;;9.10;;
58661;SDS011;44432;49.786;22.760;2023-12-29T10:32:00;18.90;;;8.20;;
58661;SDS011;44432;49.786;22.760;2023-12-29T10:34:31;19.70;;;9.00;;
58661;SDS011;44432;49.786;22.760;2023-12-29T10:37:02;10.70;;;6.60;;
58661;SDS011;44432;49.786;22.760;2023-12-29T10:39:37;10.70;;;7.20;;
58661;SDS011;44432;49.786;22.760;2023-12-29T10:42:08;13.80;;;8.20;;
58661;SDS011;44432;49.786;22.760;2023-12-29T10:44:39;10.90;;;6.40;;
58661;SDS011;44432;49.786;22.760;2023-12-29T10:47:10;14.60;;;7.30;;
58661;SDS011;44432;49.786;22.760;2023-12-29T10:49:42;12.30;;;7.00;;
58661;SDS011;44432;49.786;22.760;2023-12-29T10:52:13;11.10;;;6.90;;
58661;SDS011;44432;49.786;22.760;2023-12-29T10:54:44;28.10;;;7.80;;
58661;SDS011;44432;49.786;22.760;2023-12-29T10:57:15;15.10;;;7.30;;
58661;SDS011;44432;49.786;22.760;2023-12-29T10:59:46;15.20;;;8.10;;
58661;SDS011;44432;49.786;22.760;2023-12-29T11:02:25;21.20;;;13.30;;
58661;SDS011;44432;49.786;22.760;2023-12-29T11:05:02;23.50;;;17.60;;
58661;SDS011;44432;49.786;22.760;2023-12-29T11:07:37;20.10;;;13.50;;
58661;SDS011;44432;49.786;22.760;2023-12-29T11:10:09;16.60;;;10.80;;
58661;SDS011;44432;49.786;22.760;2023-12-29T11:12:40;20.40;;;10.60;;
58661;SDS011;44432;49.786;22.760;2023-12-29T11:15:11;16.30;;;9.00;;
58661;SDS011;44432;49.786;22.760;2023-12-29T11:17:44;17.90;;;8.70;;
58661;SDS011;44432;49.786;22.760;2023-12-29T11:20:19;14.80;;;8.20;;
58661;SDS011;44432;49.786;22.760;2023-12-29T11:22:50;11.80;;;7.90;;
58661;SDS011;44432;49.786;22.760;2023-12-29T11:25:21;12.10;;;8.00;;
58661;SDS011;44432;49.786;22.760;2023-12-29T11:27:52;14.40;;;7.10;;
58661;SDS011;44432;49.786;22.760;2023-12-29T11:30:24;14.00;;;8.00;;
58661;SDS011;44432;49.786;22.760;2023-12-29T11:32:57;10.40;;;7.90;;
58661;SDS011;44432;49.786;22.760;2023-12-29T11:35:32;11.30;;;7.30;;
58661;SDS011;44432;49.786;22.760;2023-12-29T11:38:11;12.70;;;7.20;;
58661;SDS011;44432;49.786;22.760;2023-12-29T11:40:56;11.10;;;7.90;;
58661;SDS011;44432;49.786;22.760;2023-12-29T11:43:31;11.50;;;7.80;;
58661;SDS011;44432;49.786;22.760;2023-12-29T11:46:02;11.50;;;8.00;;
58661;SDS011;44432;49.786;22.760;2023-12-29T11:51:31;12.60;;;7.70;;
58661;SDS011;44432;49.786;22.760;2023-12-29T11:54:04;13.90;;;8.00;;
58661;SDS011;44432;49.786;22.760;2023-12-29T11:56:36;11.80;;;6.90;;
58661;SDS011;44432;49.786;22.760;2023-12-29T11:59:15;16.50;;;8.00;;
58661;SDS011;44432;49.786;22.760;2023-12-29T12:01:48;18.70;;;7.00;;
58661;SDS011;44432;49.786;22.760;2023-12-29T12:07:15;13.10;;;7.40;;
58661;SDS011;44432;49.786;22.760;2023-12-29T12:13:01;17.10;;;8.40;;
58661;SDS011;44432;49.786;22.760;2023-12-29T12:15:32;14.10;;;7.00;;
58661;SDS011;44432;49.786;22.760;2023-12-29T12:18:04;20.00;;;7.40;;
58661;SDS011;44432;49.786;22.760;2023-12-29T12:20:37;12.80;;;6.90;;
58661;SDS011;44432;49.786;22.760;2023-12-29T12:23:10;19.00;;;7.40;;
58661;SDS011;44432;49.786;22.760;2023-12-29T12:25:46;20.90;;;8.40;;
58661;SDS011;44432;49.786;22.760;2023-12-29T12:28:18;20.60;;;11.60;;
58661;SDS011;44432;49.786;22.760;2023-12-29T12:30:50;24.20;;;16.10;;
58661;SDS011;44432;49.786;22.760;2023-12-29T12:33:22;19.50;;;11.10;;
58661;SDS011;44432;49.786;22.760;2023-12-29T12:35:59;19.30;;;11.70;;
58661;SDS011;44432;49.786;22.760;2023-12-29T12:38:30;35.80;;;20.30;;
58661;SDS011;44432;49.786;22.760;2023-12-29T12:41:10;16.30;;;9.70;;
58661;SDS011;44432;49.786;22.760;2023-12-29T12:43:41;22.80;;;10.30;;
58661;SDS011;44432;49.786;22.760;2023-12-29T12:46:26;18.10;;;11.40;;
58661;SDS011;44432;49.786;22.760;2023-12-29T12:49:01;13.30;;;8.20;;
58661;SDS011;44432;49.786;22.760;2023-12-29T12:51:33;12.70;;;9.00;;
58661;SDS011;44432;49.786;22.760;2023-12-29T12:54:04;20.30;;;11.80;;
58661;SDS011;44432;49.786;22.760;2023-12-29T12:56:36;16.50;;;9.80;;
58661;SDS011;44432;49.786;22.760;2023-12-29T13:01:41;14.30;;;8.50;;
58661;SDS011;44432;49.786;22.760;2023-12-29T13:04:12;19.40;;;13.20;;
58661;SDS011;44432;49.786;22.760;2023-12-29T13:06:44;15.60;;;8.80;;
58661;SDS011;44432;49.786;22.760;2023-12-29T13:09:15;17.10;;;10.30;;
58661;SDS011;44432;49.786;22.760;2023-12-29T13:11:47;20.00;;;12.10;;
58661;SDS011;44432;49.786;22.760;2023-12-29T13:14:21;14.00;;;8.60;;
58661;SDS011;44432;49.786;22.760;2023-12-29T13:16:53;15.80;;;9.40;;
58661;SDS011;44432;49.786;22.760;2023-12-29T13:19:24;23.30;;;15.30;;
58661;SDS011;44432;49.786;22.760;2023-12-29T13:21:55;12.40;;;8.60;;
58661;SDS011;44432;49.786;22.760;2023-12-29T13:24:26;25.80;;;9.80;;
58661;SDS011;44432;49.786;22.760;2023-12-29T13:27:01;20.50;;;10.90;;
58661;SDS011;44432;49.786;22.760;2023-12-29T13:29:34;21.10;;;11.30;;
58661;SDS011;44432;49.786;22.760;2023-12-29T13:32:07;16.80;;;10.50;;
58661;SDS011;44432;49.786;22.760;2023-12-29T13:34:48;20.50;;;9.90;;
58661;SDS011;44432;49.786;22.760;2023-12-29T13:37:24;21.80;;;9.60;;
58661;SDS011;44432;49.786;22.760;2023-12-29T13:40:02;17.20;;;10.10;;
58661;SDS011;44432;49.786;22.760;2023-12-29T13:42:43;31.10;;;11.90;;
58661;SDS011;44432;49.786;22.760;2023-12-29T13:45:17;17.40;;;9.40;;
58661;SDS011;44432;49.786;22.760;2023-12-29T13:47:49;13.90;;;8.80;;
58661;SDS011;44432;49.786;22.760;2023-12-29T13:50:21;19.10;;;10.50;;
58661;SDS011;44432;49.786;22.760;2023-12-29T13:52:52;21.10;;;10.70;;
58661;SDS011;44432;49.786;22.760;2023-12-29T13:55:23;20.10;;;10.60;;
58661;SDS011;44432;49.786;22.760;2023-12-29T13:57:55;30.20;;;12.30;;
58661;SDS011;44432;49.786;22.760;2023-12-29T14:00:27;24.00;;;12.20;;
58661;SDS011;44432;49.786;22.760;2023-12-29T14:03:01;20.30;;;12.40;;
58661;SDS011;44432;49.786;22.760;2023-12-29T14:05:43;28.60;;;15.00;;
58661;SDS011;44432;49.786;22.760;2023-12-29T14:08:23;26.60;;;14.30;;
58661;SDS011;44432;49.786;22.760;2023-12-29T14:11:01;18.60;;;11.90;;
58661;SDS011;44432;49.786;22.760;2023-12-29T14:13:42;26.70;;;15.70;;
58661;SDS011;44432;49.786;22.760;2023-12-29T14:16:13;25.10;;;13.20;;
58661;SDS011;44432;49.786;22.760;2023-12-29T14:18:54;37.30;;;16.60;;
58661;SDS011;44432;49.786;22.760;2023-12-29T14:21:28;40.30;;;15.20;;
58661;SDS011;44432;49.786;22.760;2023-12-29T14:24:05;34.90;;;17.00;;
58661;SDS011;44432;49.786;22.760;2023-12-29T14:26:38;33.60;;;16.60;;
58661;SDS011;44432;49.786;22.760;2023-12-29T14:29:12;23.10;;;11.80;;
58661;SDS011;44432;49.786;22.760;2023-12-29T14:31:44;19.50;;;10.40;;
58661;SDS011;44432;49.786;22.760;2023-12-29T14:34:16;20.50;;;10.60;;
58661;SDS011;44432;49.786;22.760;2023-12-29T14:36:47;17.30;;;10.30;;
58661;SDS011;44432;49.786;22.760;2023-12-29T14:39:18;20.00;;;10.00;;
58661;SDS011;44432;49.786;22.760;2023-12-29T14:41:51;23.10;;;12.60;;
58661;SDS011;44432;49.786;22.760;2023-12-29T14:44:27;27.70;;;15.10;;
58661;SDS011;44432;49.786;22.760;2023-12-29T14:46:59;21.90;;;13.60;;
58661;SDS011;44432;49.786;22.760;2023-12-29T14:49:34;30.40;;;17.40;;
58661;SDS011;44432;49.786;22.760;2023-12-29T14:52:09;22.60;;;13.40;;
58661;SDS011;44432;49.786;22.760;2023-12-29T14:54:40;22.80;;;12.60;;